Time,TemperatureF,DewpointF,PressureIn,WindDirection,WindDirectionDegrees,WindSpeedMPH,WindSpeedGustMPH,Humidity,HourlyPrecipIn,Conditions,Clouds,dailyrainin,SoftwareType,DateUTC
2013-04-18 00:05:00,53.2,36.5,30.25,NW,304,1.0,1.0,53,0.00,,,0.00,Wunderground v.1.15,2013-04-18 07:05:00,
2013-04-18 00:10:00,53.0,36.8,30.25,NW,321,1.0,1.0,54,0.00,,,0.00,Wunderground v.1.15,2013-04-18 07:10:00,
2013-04-18 00:20:00,52.4,37.2,30.25,NW,308,1.0,1.0,56,0.00,,,0.00,Wunderground v.1.15,2013-04-18 07:20:00,
2013-04-18 00:25:00,52.1,37.3,30.24,NW,309,1.0,1.0,57,0.00,,,0.00,Wunderground v.1.15,2013-04-18 07:25:00,
2013-04-18 00:30:00,52.2,37.4,30.25,NW,307,1.0,1.0,57,0.00,,,0.00,Wunderground v.1.15,2013-04-18 07:30:00,
2013-04-18 00:35:00,52.2,37.9,30.25,NW,307,1.0,1.0,58,0.00,,,0.00,Wunderground v.1.15,2013-04-18 07:35:00,
2013-04-18 00:40:00,52.0,37.7,30.25,NW,307,0.0,0.0,58,0.00,,,0.00,Wunderground v.1.15,2013-04-18 07:40:00,
2013-04-18 00:45:00,51.9,38.0,30.25,NW,315,0.0,2.0,59,0.00,,,0.00,Wunderground v.1.15,2013-04-18 07:45:00,
2013-04-18 00:50:00,51.8,37.9,30.25,NW,309,1.0,1.0,59,0.00,,,0.00,Wunderground v.1.15,2013-04-18 07:50:00,
2013-04-18 00:55:00,52.0,37.7,30.25,WNW,297,1.0,1.0,58,0.00,,,0.00,Wunderground v.1.15,2013-04-18 07:55:00,
2013-04-18 01:05:00,52.4,38.0,30.24,NW,313,1.0,1.0,58,0.00,,,0.00,Wunderground v.1.15,2013-04-18 08:05:00,
2013-04-18 01:10:00,52.2,38.3,30.24,WNW,300,1.0,1.0,59,0.00,,,0.00,Wunderground v.1.15,2013-04-18 08:10:00,
2013-04-18 01:15:00,52.3,38.4,30.24,WNW,302,1.0,1.0,59,0.00,,,0.00,Wunderground v.1.15,2013-04-18 08:15:00,
2013-04-18 01:20:00,52.1,38.6,30.24,NW,306,1.0,1.0,60,0.00,,,0.00,Wunderground v.1.15,2013-04-18 08:20:00,
2013-04-18 01:30:00,52.0,38.5,30.24,WNW,294,1.0,2.0,60,0.00,,,0.00,Wunderground v.1.15,2013-04-18 08:30:00,
2013-04-18 01:35:00,52.2,38.7,30.24,West,279,1.0,2.0,60,0.00,,,0.00,Wunderground v.1.15,2013-04-18 08:35:00,
2013-04-18 01:40:00,52.2,38.7,30.24,WNW,302,1.0,1.0,60,0.00,,,0.00,Wunderground v.1.15,2013-04-18 08:40:00,
2013-04-18 01:45:00,51.9,38.4,30.24,WNW,299,0.0,1.0,60,0.00,,,0.00,Wunderground v.1.15,2013-04-18 08:45:00,
2013-04-18 01:50:00,51.5,38.5,30.24,NW,313,1.0,1.0,61,0.00,,,0.00,Wunderground v.1.15,2013-04-18 08:50:00,
2013-04-18 02:00:00,51.4,38.8,30.24,WNW,294,1.0,1.0,62,0.00,,,0.00,Wunderground v.1.15,2013-04-18 09:00:00,
2013-04-18 02:05:00,50.7,38.6,30.24,WNW,303,1.0,1.0,63,0.00,,,0.00,Wunderground v.1.15,2013-04-18 09:05:00,
2013-04-18 02:10:00,50.6,38.9,30.24,WNW,292,1.0,2.0,64,0.00,,,0.00,Wunderground v.1.15,2013-04-18 09:10:00,
2013-04-18 02:15:00,50.8,38.7,30.24,WNW,296,1.0,2.0,63,0.00,,,0.00,Wunderground v.1.15,2013-04-18 09:15:00,
2013-04-18 02:20:00,51.0,38.4,30.24,WNW,290,1.0,2.0,62,0.00,,,0.00,Wunderground v.1.15,2013-04-18 09:20:00,
2013-04-18 02:30:00,51.8,38.3,30.24,NW,304,1.0,1.0,60,0.00,,,0.00,Wunderground v.1.15,2013-04-18 09:30:00,
2013-04-18 02:35:00,52.0,38.1,30.24,WNW,303,0.0,4.0,59,0.00,,,0.00,Wunderground v.1.15,2013-04-18 09:35:00,
2013-04-18 02:40:00,52.3,38.0,30.24,WNW,294,1.0,1.0,58,0.00,,,0.00,Wunderground v.1.15,2013-04-18 09:40:00,
2013-04-18 02:45:00,52.0,38.1,30.24,NW,315,1.0,3.0,59,0.00,,,0.00,Wunderground v.1.15,2013-04-18 09:45:00,
2013-04-18 02:50:00,51.5,38.1,30.24,WNW,300,1.0,1.0,60,0.00,,,0.00,Wunderground v.1.15,2013-04-18 09:50:00,
2013-04-18 02:55:00,50.9,37.9,30.24,WNW,298,0.0,1.0,61,0.00,,,0.00,Wunderground v.1.15,2013-04-18 09:55:00,
2013-04-18 03:00:00,50.6,37.6,30.24,NW,304,0.0,0.0,61,0.00,,,0.00,Wunderground v.1.15,2013-04-18 10:00:00,
2013-04-18 03:05:00,50.6,38.1,30.24,SW,236,1.0,1.0,62,0.00,,,0.00,Wunderground v.1.15,2013-04-18 10:05:00,
2013-04-18 03:15:00,51.1,38.1,30.23,North,355,1.0,4.0,61,0.00,,,0.00,Wunderground v.1.15,2013-04-18 10:15:00,
2013-04-18 03:20:00,51.3,38.3,30.24,NW,309,2.0,2.0,61,0.00,,,0.00,Wunderground v.1.15,2013-04-18 10:20:00,
2013-04-18 03:25:00,51.4,38.4,30.24,WNW,289,2.0,2.0,61,0.00,,,0.00,Wunderground v.1.15,2013-04-18 10:25:00,
2013-04-18 03:35:00,52.2,37.9,30.24,WNW,286,3.0,3.0,58,0.00,,,0.00,Wunderground v.1.15,2013-04-18 10:35:00,
2013-04-18 03:40:00,52.4,37.2,30.24,WNW,287,2.0,4.0,56,0.00,,,0.00,Wunderground v.1.15,2013-04-18 10:40:00,
2013-04-18 03:45:00,52.6,37.3,30.24,West,270,2.0,4.0,56,0.00,,,0.00,Wunderground v.1.15,2013-04-18 10:45:00,
2013-04-18 03:50:00,52.7,37.0,30.24,West,267,2.0,3.0,55,0.00,,,0.00,Wunderground v.1.15,2013-04-18 10:50:00,
2013-04-18 04:00:00,51.4,37.1,30.24,NW,308,1.0,2.0,58,0.00,,,0.00,Wunderground v.1.15,2013-04-18 11:00:00,
2013-04-18 04:05:00,50.5,37.1,30.24,NW,305,1.0,2.0,60,0.00,,,0.00,Wunderground v.1.15,2013-04-18 11:05:00,
2013-04-18 04:10:00,50.0,37.5,30.24,NW,317,1.0,1.0,62,0.00,,,0.00,Wunderground v.1.15,2013-04-18 11:10:00,
2013-04-18 04:15:00,49.9,37.0,30.24,WNW,292,0.0,1.0,61,0.00,,,0.00,Wunderground v.1.15,2013-04-18 11:15:00,
2013-04-18 04:20:00,50.0,37.1,30.24,WNW,297,0.0,0.0,61,0.00,,,0.00,Wunderground v.1.15,2013-04-18 11:20:00,
2013-04-18 04:30:00,49.5,37.4,30.24,WNW,297,0.0,0.0,63,0.00,,,0.00,Wunderground v.1.15,2013-04-18 11:30:00,
2013-04-18 04:40:00,49.0,36.1,30.24,WNW,302,0.0,0.0,61,0.00,,,0.00,Wunderground v.1.15,2013-04-18 11:40:00,
2013-04-18 04:45:00,49.1,35.4,30.24,NW,306,0.0,0.0,59,0.00,,,0.00,Wunderground v.1.15,2013-04-18 11:45:00,
2013-04-18 04:50:00,49.6,34.5,30.24,NW,315,0.0,1.0,56,0.00,,,0.00,Wunderground v.1.15,2013-04-18 11:50:00,
2013-04-18 04:55:00,49.9,33.9,30.24,WNW,292,0.0,1.0,54,0.00,,,0.00,Wunderground v.1.15,2013-04-18 11:55:00,
2013-04-18 05:05:00,50.1,33.1,30.24,WNW,301,0.0,1.0,52,0.00,,,0.00,Wunderground v.1.15,2013-04-18 12:05:00,
2013-04-18 05:10:00,50.1,33.6,30.24,NW,309,0.0,0.0,53,0.00,,,0.00,Wunderground v.1.15,2013-04-18 12:10:00,
2013-04-18 05:15:00,50.1,33.1,30.24,NW,310,0.0,2.0,52,0.00,,,0.00,Wunderground v.1.15,2013-04-18 12:15:00,
2013-04-18 05:25:00,50.5,32.5,30.24,NW,321,0.0,0.0,50,0.00,,,0.00,Wunderground v.1.15,2013-04-18 12:25:00,
2013-04-18 05:30:00,50.5,32.5,30.24,NW,321,0.0,0.0,50,0.00,,,0.00,Wunderground v.1.15,2013-04-18 12:30:00,
2013-04-18 05:35:00,50.5,32.5,30.25,NW,321,0.0,0.0,50,0.00,,,0.00,Wunderground v.1.15,2013-04-18 12:35:00,
2013-04-18 05:40:00,50.8,32.8,30.25,NNW,341,0.0,0.0,50,0.00,,,0.00,Wunderground v.1.15,2013-04-18 12:40:00,
2013-04-18 05:50:00,50.7,31.7,30.25,NNW,336,0.0,0.0,48,0.00,,,0.00,Wunderground v.1.15,2013-04-18 12:50:00,
2013-04-18 05:55:00,50.4,31.9,30.25,NW,323,0.0,0.0,49,0.00,,,0.00,Wunderground v.1.15,2013-04-18 12:55:00,
2013-04-18 06:00:00,50.3,32.4,30.25,NW,323,0.0,0.0,50,0.00,,,0.00,Wunderground v.1.15,2013-04-18 13:00:00,
2013-04-18 06:05:00,50.2,32.8,30.25,NW,323,0.0,0.0,51,0.00,,,0.00,Wunderground v.1.15,2013-04-18 13:05:00,
2013-04-18 06:10:00,50.2,31.2,30.25,WNW,302,0.0,0.0,48,0.00,,,0.00,Wunderground v.1.15,2013-04-18 13:10:00,
2013-04-18 06:20:00,50.6,32.1,30.26,WNW,288,0.0,0.0,49,0.00,,,0.00,Wunderground v.1.15,2013-04-18 13:20:00,
2013-04-18 06:25:00,50.6,31.6,30.26,NNW,333,0.0,0.0,48,0.00,,,0.00,Wunderground v.1.15,2013-04-18 13:25:00,
2013-04-18 06:30:00,50.6,31.6,30.26,NNW,333,0.0,0.0,48,0.00,,,0.00,Wunderground v.1.15,2013-04-18 13:30:00,
2013-04-18 06:35:00,50.5,31.5,30.26,NNW,333,0.0,1.0,48,0.00,,,0.00,Wunderground v.1.15,2013-04-18 13:35:00,
2013-04-18 06:45:00,50.6,31.6,30.26,NNW,334,0.0,0.0,48,0.00,,,0.00,Wunderground v.1.15,2013-04-18 13:45:00,
2013-04-18 06:50:00,50.9,31.4,30.27,NW,326,0.0,0.0,47,0.00,,,0.00,Wunderground v.1.15,2013-04-18 13:50:00,
2013-04-18 06:55:00,51.5,31.4,30.27,WNW,282,0.0,0.0,46,0.00,,,0.00,Wunderground v.1.15,2013-04-18 13:55:00,
2013-04-18 07:00:00,51.9,31.7,30.27,NW,312,0.0,0.0,46,0.00,,,0.00,Wunderground v.1.15,2013-04-18 14:00:00,
2013-04-18 07:05:00,52.0,30.7,30.27,NW,313,0.0,0.0,44,0.00,,,0.00,Wunderground v.1.15,2013-04-18 14:05:00,
2013-04-18 07:15:00,53.0,30.5,30.27,NW,313,0.0,0.0,42,0.00,,,0.00,Wunderground v.1.15,2013-04-18 14:15:00,
2013-04-18 07:20:00,53.4,32.6,30.27,NW,313,0.0,0.0,45,0.00,,,0.00,Wunderground v.1.15,2013-04-18 14:20:00,
2013-04-18 07:25:00,53.7,33.4,30.27,NW,313,0.0,0.0,46,0.00,,,0.00,Wunderground v.1.15,2013-04-18 14:25:00,
2013-04-18 07:30:00,53.9,36.2,30.28,NW,313,0.0,0.0,51,0.00,,,0.00,Wunderground v.1.15,2013-04-18 14:30:00,
2013-04-18 07:35:00,53.8,36.1,30.28,NW,313,0.0,0.0,51,0.00,,,0.00,Wunderground v.1.15,2013-04-18 14:35:00,
2013-04-18 07:45:00,53.1,36.4,30.28,NW,313,0.0,0.0,53,0.00,,,0.00,Wunderground v.1.15,2013-04-18 14:45:00,
2013-04-18 07:50:00,52.8,37.5,30.28,NW,313,0.0,0.0,56,0.00,,,0.00,Wunderground v.1.15,2013-04-18 14:50:00,
2013-04-18 07:55:00,52.7,37.9,30.28,NW,313,0.0,0.0,57,0.00,,,0.00,Wunderground v.1.15,2013-04-18 14:55:00,
2013-04-18 08:00:00,52.7,37.9,30.28,NW,313,0.0,0.0,57,0.00,,,0.00,Wunderground v.1.15,2013-04-18 15:00:00,
2013-04-18 08:10:00,53.5,38.2,30.28,NW,313,0.0,0.0,56,0.00,,,0.00,Wunderground v.1.15,2013-04-18 15:10:00,
2013-04-18 08:15:00,54.0,37.7,30.28,NW,313,0.0,0.0,54,0.00,,,0.00,Wunderground v.1.15,2013-04-18 15:15:00,
2013-04-18 08:20:00,54.6,36.3,30.28,NW,313,0.0,0.0,50,0.00,,,0.00,Wunderground v.1.15,2013-04-18 15:20:00,
2013-04-18 08:30:00,55.4,37.1,30.28,NW,313,0.0,0.0,50,0.00,,,0.00,Wunderground v.1.15,2013-04-18 15:30:00,
2013-04-18 08:35:00,55.9,35.9,30.28,NW,313,0.0,0.0,47,0.00,,,0.00,Wunderground v.1.15,2013-04-18 15:35:00,
2013-04-18 08:40:00,56.4,36.9,30.28,NW,313,0.0,0.0,48,0.00,,,0.00,Wunderground v.1.15,2013-04-18 15:40:00,
2013-04-18 08:45:00,56.8,35.7,30.28,North,350,0.0,0.0,45,0.00,,,0.00,Wunderground v.1.15,2013-04-18 15:45:00,
2013-04-18 08:50:00,57.5,34.6,30.28,SW,221,0.0,0.0,42,0.00,,,0.00,Wunderground v.1.15,2013-04-18 15:50:00,
2013-04-18 08:55:00,58.3,37.6,30.28,South,179,0.0,0.0,46,0.00,,,0.00,Wunderground v.1.15,2013-04-18 15:55:00,
2013-04-18 09:00:00,59.0,35.3,30.28,South,181,0.0,0.0,41,0.00,,,0.00,Wunderground v.1.15,2013-04-18 16:00:00,
2013-04-18 09:05:00,59.8,37.2,30.28,SE,145,0.0,1.0,43,0.00,,,0.00,Wunderground v.1.15,2013-04-18 16:05:00,
2013-04-18 09:10:00,60.6,38.6,30.28,SSE,159,0.0,0.0,44,0.00,,,0.00,Wunderground v.1.15,2013-04-18 16:10:00,
2013-04-18 09:20:00,61.0,38.3,30.28,SSE,151,1.0,1.0,43,0.00,,,0.00,Wunderground v.1.15,2013-04-18 16:20:00,
2013-04-18 09:25:00,61.7,36.5,30.29,SSE,163,1.0,1.0,39,0.00,,,0.00,Wunderground v.1.15,2013-04-18 16:25:00,
2013-04-18 09:35:00,62.3,35.0,30.29,SE,144,1.0,4.0,36,0.00,,,0.00,Wunderground v.1.15,2013-04-18 16:35:00,
2013-04-18 09:40:00,62.2,36.3,30.29,SSE,150,2.0,2.0,38,0.00,,,0.00,Wunderground v.1.15,2013-04-18 16:40:00,
2013-04-18 09:45:00,62.4,35.8,30.28,SSE,153,1.0,2.0,37,0.00,,,0.00,Wunderground v.1.15,2013-04-18 16:45:00,
2013-04-18 09:50:00,63.1,35.7,30.29,SSE,152,1.0,1.0,36,0.00,,,0.00,Wunderground v.1.15,2013-04-18 16:50:00,
2013-04-18 10:00:00,63.8,36.3,30.29,ESE,110,1.0,1.0,36,0.00,,,0.00,Wunderground v.1.15,2013-04-18 17:00:00,
2013-04-18 10:05:00,64.3,36.0,30.29,ESE,115,1.0,1.0,35,0.00,,,0.00,Wunderground v.1.15,2013-04-18 17:05:00,
2013-04-18 10:10:00,64.4,35.4,30.29,East,93,1.0,1.0,34,0.00,,,0.00,Wunderground v.1.15,2013-04-18 17:10:00,
2013-04-18 10:15:00,64.4,34.6,30.29,ESE,123,1.0,2.0,33,0.00,,,0.00,Wunderground v.1.15,2013-04-18 17:15:00,
2013-04-18 10:20:00,64.5,35.5,30.29,SE,132,1.0,1.0,34,0.00,,,0.00,Wunderground v.1.15,2013-04-18 17:20:00,
2013-04-18 10:25:00,64.9,35.8,30.29,SE,139,1.0,1.0,34,0.00,,,0.00,Wunderground v.1.15,2013-04-18 17:25:00,
2013-04-18 10:30:00,65.3,35.4,30.29,SE,131,1.0,1.0,33,0.00,,,0.00,Wunderground v.1.15,2013-04-18 17:30:00,
2013-04-18 10:40:00,65.6,34.9,30.29,SE,132,2.0,2.0,32,0.00,,,0.00,Wunderground v.1.15,2013-04-18 17:40:00,
2013-04-18 10:45:00,65.8,33.5,30.29,ESE,123,1.0,2.0,30,0.00,,,0.00,Wunderground v.1.15,2013-04-18 17:45:00,
2013-04-18 10:50:00,66.0,35.3,30.29,SSE,153,1.0,1.0,32,0.00,,,0.00,Wunderground v.1.15,2013-04-18 17:50:00,
2013-04-18 10:55:00,66.1,35.4,30.29,SSE,161,2.0,2.0,32,0.00,,,0.00,Wunderground v.1.15,2013-04-18 17:55:00,
2013-04-18 11:05:00,66.3,36.3,30.29,West,263,2.0,2.0,33,0.00,,,0.00,Wunderground v.1.15,2013-04-18 18:05:00,
2013-04-18 11:10:00,67.0,35.3,30.29,NW,315,1.0,2.0,31,0.00,,,0.00,Wunderground v.1.15,2013-04-18 18:10:00,
2013-04-18 11:15:00,66.8,35.2,30.29,ESE,123,1.0,2.0,31,0.00,,,0.00,Wunderground v.1.15,2013-04-18 18:15:00,
2013-04-18 11:20:00,67.1,34.6,30.29,East,83,1.0,1.0,30,0.00,,,0.00,Wunderground v.1.15,2013-04-18 18:20:00,
2013-04-18 11:30:00,68.0,36.2,30.29,ENE,75,0.0,0.0,31,0.00,,,0.00,Wunderground v.1.15,2013-04-18 18:30:00,
2013-04-18 11:35:00,68.1,33.7,30.29,ESE,121,1.0,1.0,28,0.00,,,0.00,Wunderground v.1.15,2013-04-18 18:35:00,
2013-04-18 11:45:00,67.9,33.6,30.29,NW,317,1.0,3.0,28,0.00,,,0.00,Wunderground v.1.15,2013-04-18 18:45:00,
2013-04-18 11:50:00,67.6,34.2,30.29,NE,36,2.0,2.0,29,0.00,,,0.00,Wunderground v.1.15,2013-04-18 18:50:00,
2013-04-18 11:55:00,67.5,35.0,30.28,SSE,165,2.0,2.0,30,0.00,,,0.00,Wunderground v.1.15,2013-04-18 18:55:00,
2013-04-18 12:05:00,68.1,36.3,30.28,ESE,105,1.0,1.0,31,0.00,,,0.00,Wunderground v.1.15,2013-04-18 19:05:00,
2013-04-18 12:10:00,68.5,34.1,30.28,WNW,288,1.0,1.0,28,0.00,,,0.00,Wunderground v.1.15,2013-04-18 19:10:00,
2013-04-18 12:15:00,69.6,35.0,30.28,ESE,113,1.0,3.0,28,0.00,,,0.00,Wunderground v.1.15,2013-04-18 19:15:00,
2013-04-18 12:20:00,69.9,34.4,30.28,WNW,288,2.0,2.0,27,0.00,,,0.00,Wunderground v.1.15,2013-04-18 19:20:00,
2013-04-18 12:25:00,70.7,34.1,30.28,South,173,2.0,2.0,26,0.00,,,0.00,Wunderground v.1.15,2013-04-18 19:25:00,
2013-04-18 12:30:00,70.8,34.2,30.28,NE,48,1.0,1.0,26,0.00,,,0.00,Wunderground v.1.15,2013-04-18 19:30:00,
2013-04-18 12:40:00,70.5,34.9,30.27,ESE,105,2.0,2.0,27,0.00,,,0.00,Wunderground v.1.15,2013-04-18 19:40:00,
2013-04-18 12:45:00,70.3,34.7,30.27,West,265,1.0,2.0,27,0.00,,,0.00,Wunderground v.1.15,2013-04-18 19:45:00,
2013-04-18 12:50:00,70.3,36.5,30.27,ESE,121,2.0,2.0,29,0.00,,,0.00,Wunderground v.1.15,2013-04-18 19:50:00,
2013-04-18 12:55:00,70.7,34.1,30.27,West,269,2.0,2.0,26,0.00,,,0.00,Wunderground v.1.15,2013-04-18 19:55:00,
2013-04-18 13:05:00,70.4,34.8,30.27,East,83,2.0,3.0,27,0.00,,,0.00,Wunderground v.1.15,2013-04-18 20:05:00,
2013-04-18 13:10:00,70.4,34.8,30.26,ESE,121,2.0,2.0,27,0.00,,,0.00,Wunderground v.1.15,2013-04-18 20:10:00,
2013-04-18 13:20:00,70.8,35.1,30.26,SE,136,1.0,2.0,27,0.00,,,0.00,Wunderground v.1.15,2013-04-18 20:20:00,
2013-04-18 13:25:00,70.7,35.1,30.26,SE,132,1.0,3.0,27,0.00,,,0.00,Wunderground v.1.15,2013-04-18 20:25:00,
2013-04-18 13:35:00,71.3,36.5,30.26,East,93,1.0,1.0,28,0.00,,,0.00,Wunderground v.1.15,2013-04-18 20:35:00,
2013-04-18 13:40:00,71.5,35.7,30.26,ESE,117,1.0,2.0,27,0.00,,,0.00,Wunderground v.1.15,2013-04-18 20:40:00,
2013-04-18 13:45:00,71.3,34.6,30.26,West,270,1.0,2.0,26,0.00,,,0.00,Wunderground v.1.15,2013-04-18 20:45:00,
2013-04-18 13:50:00,71.6,35.8,30.26,East,84,1.0,1.0,27,0.00,,,0.00,Wunderground v.1.15,2013-04-18 20:50:00,
2013-04-18 13:55:00,71.9,35.1,30.25,NW,304,1.0,3.0,26,0.00,,,0.00,Wunderground v.1.15,2013-04-18 20:55:00,
2013-04-18 14:00:00,72.0,35.2,30.25,SE,128,1.0,2.0,26,0.00,,,0.00,Wunderground v.1.15,2013-04-18 21:00:00,
2013-04-18 14:05:00,71.9,36.1,30.25,SE,128,1.0,2.0,27,0.00,,,0.00,Wunderground v.1.15,2013-04-18 21:05:00,
2013-04-18 14:15:00,72.6,36.7,30.25,East,98,1.0,5.0,27,0.00,,,0.00,Wunderground v.1.15,2013-04-18 21:15:00,
2013-04-18 14:20:00,72.1,36.3,30.25,East,95,2.0,3.0,27,0.00,,,0.00,Wunderground v.1.15,2013-04-18 21:20:00,
2013-04-18 14:25:00,72.0,36.2,30.25,WSW,254,2.0,3.0,27,0.00,,,0.00,Wunderground v.1.15,2013-04-18 21:25:00,
2013-04-18 14:30:00,72.2,36.3,30.25,ESE,103,1.0,1.0,27,0.00,,,0.00,Wunderground v.1.15,2013-04-18 21:30:00,
2013-04-18 14:35:00,72.4,35.6,30.25,NW,306,2.0,3.0,26,0.00,,,0.00,Wunderground v.1.15,2013-04-18 21:35:00,
2013-04-18 14:45:00,72.8,37.8,30.25,SE,130,1.0,2.0,28,0.00,,,0.00,Wunderground v.1.15,2013-04-18 21:45:00,
2013-04-18 14:50:00,72.9,37.9,30.24,SE,132,1.0,2.0,28,0.00,,,0.00,Wunderground v.1.15,2013-04-18 21:50:00,
2013-04-18 14:55:00,72.5,36.6,30.24,SE,126,2.0,2.0,27,0.00,,,0.00,Wunderground v.1.15,2013-04-18 21:55:00,
2013-04-18 15:00:00,72.6,37.6,30.24,East,99,1.0,1.0,28,0.00,,,0.00,Wunderground v.1.15,2013-04-18 22:00:00,
2013-04-18 15:05:00,72.4,37.4,30.24,East,84,1.0,1.0,28,0.00,,,0.00,Wunderground v.1.15,2013-04-18 22:05:00,
2013-04-18 15:10:00,72.4,36.5,30.24,South,191,1.0,1.0,27,0.00,,,0.00,Wunderground v.1.15,2013-04-18 22:10:00,
2013-04-18 15:15:00,73.1,37.1,30.23,SSW,192,1.0,2.0,27,0.00,,,0.00,Wunderground v.1.15,2013-04-18 22:15:00,
2013-04-18 15:25:00,73.8,36.8,30.23,NW,325,2.0,2.0,26,0.00,,,0.00,Wunderground v.1.15,2013-04-18 22:25:00,
2013-04-18 15:30:00,73.5,38.4,30.23,SW,215,2.0,2.0,28,0.00,,,0.00,Wunderground v.1.15,2013-04-18 22:30:00,
2013-04-18 15:35:00,74.0,38.8,30.22,NW,307,1.0,2.0,28,0.00,,,0.00,Wunderground v.1.15,2013-04-18 22:35:00,
2013-04-18 15:40:00,74.3,38.1,30.23,WNW,282,2.0,2.0,27,0.00,,,0.00,Wunderground v.1.15,2013-04-18 22:40:00,
2013-04-18 15:45:00,74.4,39.2,30.22,NNW,340,2.0,2.0,28,0.00,,,0.00,Wunderground v.1.15,2013-04-18 22:45:00,
2013-04-18 15:55:00,74.1,38.9,30.22,NW,315,2.0,3.0,28,0.00,,,0.00,Wunderground v.1.15,2013-04-18 22:55:00,
2013-04-18 16:00:00,74.2,38.1,30.22,SE,136,1.0,1.0,27,0.00,,,0.00,Wunderground v.1.15,2013-04-18 23:00:00,
2013-04-18 16:10:00,74.7,41.2,30.22,East,82,0.0,2.0,30,0.00,,,0.00,Wunderground v.1.15,2013-04-18 23:10:00,
2013-04-18 16:15:00,75.0,39.7,30.21,South,173,0.0,2.0,28,0.00,,,0.00,Wunderground v.1.15,2013-04-18 23:15:00,
2013-04-18 16:20:00,75.1,42.4,30.21,South,170,0.0,0.0,31,0.00,,,0.00,Wunderground v.1.15,2013-04-18 23:20:00,
2013-04-18 16:25:00,74.8,41.3,30.21,SSE,151,1.0,1.0,30,0.00,,,0.00,Wunderground v.1.15,2013-04-18 23:25:00,
2013-04-18 16:35:00,74.1,42.3,30.21,West,265,1.0,3.0,32,0.00,,,0.00,Wunderground v.1.15,2013-04-18 23:35:00,
2013-04-18 16:40:00,74.0,41.4,30.21,WSW,243,1.0,1.0,31,0.00,,,0.00,Wunderground v.1.15,2013-04-18 23:40:00,
2013-04-18 16:50:00,74.4,41.8,30.21,WNW,298,0.0,0.0,31,0.00,,,0.00,Wunderground v.1.15,2013-04-18 23:50:00,
2013-04-18 16:55:00,74.4,40.9,30.21,West,279,0.0,0.0,30,0.00,,,0.00,Wunderground v.1.15,2013-04-18 23:55:00,
2013-04-18 17:00:00,74.2,40.8,30.21,WSW,257,1.0,1.0,30,0.00,,,0.00,Wunderground v.1.15,2013-04-19 00:00:00,
2013-04-18 17:05:00,73.6,41.1,30.21,West,276,1.0,1.0,31,0.00,,,0.00,Wunderground v.1.15,2013-04-19 00:05:00,
2013-04-18 17:15:00,72.6,40.2,30.21,West,261,1.0,1.0,31,0.00,,,0.00,Wunderground v.1.15,2013-04-19 00:15:00,
2013-04-18 17:20:00,72.8,40.4,30.21,NW,325,1.0,1.0,31,0.00,,,0.00,Wunderground v.1.15,2013-04-19 00:20:00,
2013-04-18 17:25:00,72.4,40.0,30.21,NNW,336,1.0,1.0,31,0.00,,,0.00,Wunderground v.1.15,2013-04-19 00:25:00,
2013-04-18 17:35:00,71.1,39.7,30.21,WNW,297,0.0,2.0,32,0.00,,,0.00,Wunderground v.1.15,2013-04-19 00:35:00,
2013-04-18 17:40:00,70.7,39.4,30.21,NNW,327,0.0,2.0,32,0.00,,,0.00,Wunderground v.1.15,2013-04-19 00:40:00,
2013-04-18 17:45:00,70.3,39.0,30.21,NNW,336,0.0,3.0,32,0.00,,,0.00,Wunderground v.1.15,2013-04-19 00:45:00,
2013-04-18 17:50:00,70.0,40.3,30.21,West,264,0.0,1.0,34,0.00,,,0.00,Wunderground v.1.15,2013-04-19 00:50:00,
2013-04-18 17:55:00,69.5,39.9,30.21,West,263,0.0,1.0,34,0.00,,,0.00,Wunderground v.1.15,2013-04-19 00:55:00,
2013-04-18 18:05:00,68.8,38.5,30.21,NW,308,1.0,1.0,33,0.00,,,0.00,Wunderground v.1.15,2013-04-19 01:05:00,
2013-04-18 18:10:00,68.8,39.3,30.21,NW,304,1.0,1.0,34,0.00,,,0.00,Wunderground v.1.15,2013-04-19 01:10:00,
2013-04-18 18:15:00,68.8,38.5,30.21,NW,304,0.0,1.0,33,0.00,,,0.00,Wunderground v.1.15,2013-04-19 01:15:00,
2013-04-18 18:25:00,68.2,37.2,30.21,West,278,0.0,0.0,32,0.00,,,0.00,Wunderground v.1.15,2013-04-19 01:25:00,
2013-04-18 18:30:00,67.9,38.5,30.21,WNW,290,0.0,0.0,34,0.00,,,0.00,Wunderground v.1.15,2013-04-19 01:30:00,
2013-04-18 18:35:00,67.6,37.5,30.21,WNW,286,0.0,1.0,33,0.00,,,0.00,Wunderground v.1.15,2013-04-19 01:35:00,
2013-04-18 18:40:00,67.3,36.4,30.21,WNW,290,1.0,3.0,32,0.00,,,0.00,Wunderground v.1.15,2013-04-19 01:40:00,
2013-04-18 18:50:00,66.7,36.7,30.21,WNW,296,1.0,1.0,33,0.00,,,0.00,Wunderground v.1.15,2013-04-19 01:50:00,
2013-04-18 18:55:00,66.5,37.2,30.21,NNW,340,0.0,2.0,34,0.00,,,0.00,Wunderground v.1.15,2013-04-19 01:55:00,
2013-04-18 19:00:00,66.1,36.9,30.20,WNW,287,0.0,0.0,34,0.00,,,0.00,Wunderground v.1.15,2013-04-19 02:00:00,
2013-04-18 19:05:00,65.9,38.2,30.21,WNW,292,0.0,0.0,36,0.00,,,0.00,Wunderground v.1.15,2013-04-19 02:05:00,
2013-04-18 19:15:00,65.1,38.8,30.21,WNW,292,0.0,0.0,38,0.00,,,0.00,Wunderground v.1.15,2013-04-19 02:15:00,
2013-04-18 19:20:00,64.7,37.8,30.21,WNW,292,0.0,0.0,37,0.00,,,0.00,Wunderground v.1.15,2013-04-19 02:20:00,
2013-04-18 19:25:00,64.2,36.7,30.21,WNW,284,0.0,2.0,36,0.00,,,0.00,Wunderground v.1.15,2013-04-19 02:25:00,
2013-04-18 19:35:00,63.4,37.3,30.21,WSW,250,0.0,0.0,38,0.00,,,0.00,Wunderground v.1.15,2013-04-19 02:35:00,
2013-04-18 19:40:00,62.9,37.5,30.21,WSW,255,0.0,0.0,39,0.00,,,0.00,Wunderground v.1.15,2013-04-19 02:40:00,
2013-04-18 19:50:00,61.8,36.6,30.21,WSW,257,0.0,0.0,39,0.00,,,0.00,Wunderground v.1.15,2013-04-19 02:50:00,
2013-04-18 19:55:00,61.4,36.2,30.21,WSW,257,0.0,0.0,39,0.00,,,0.00,Wunderground v.1.15,2013-04-19 02:55:00,
2013-04-18 20:00:00,61.1,35.3,30.21,NW,304,0.0,0.0,38,0.00,,,0.00,Wunderground v.1.15,2013-04-19 03:00:00,
2013-04-18 20:10:00,61.1,35.3,30.21,WNW,293,0.0,1.0,38,0.00,,,0.00,Wunderground v.1.15,2013-04-19 03:10:00,
2013-04-18 20:15:00,61.0,35.2,30.21,NW,312,0.0,1.0,38,0.00,,,0.00,Wunderground v.1.15,2013-04-19 03:15:00,
2013-04-18 20:20:00,60.8,35.0,30.21,NNW,343,0.0,0.0,38,0.00,,,0.00,Wunderground v.1.15,2013-04-19 03:20:00,
2013-04-18 20:25:00,60.5,35.4,30.22,NNW,343,0.0,0.0,39,0.00,,,0.00,Wunderground v.1.15,2013-04-19 03:25:00,
2013-04-18 20:35:00,59.6,35.2,30.22,NNW,343,0.0,0.0,40,0.00,,,0.00,Wunderground v.1.15,2013-04-19 03:35:00,
2013-04-18 20:40:00,59.2,36.1,30.22,North,355,0.0,0.0,42,0.00,,,0.00,Wunderground v.1.15,2013-04-19 03:40:00,
2013-04-18 20:45:00,59.0,35.3,30.22,NW,313,0.0,0.0,41,0.00,,,0.00,Wunderground v.1.15,2013-04-19 03:45:00,
2013-04-18 20:50:00,58.7,35.7,30.22,NW,313,0.0,0.0,42,0.00,,,0.00,Wunderground v.1.15,2013-04-19 03:50:00,
2013-04-18 21:00:00,58.2,35.8,30.23,NW,313,0.0,0.0,43,0.00,,,0.00,Wunderground v.1.15,2013-04-19 04:00:00,
2013-04-18 21:05:00,57.9,36.1,30.23,NW,313,0.0,0.0,44,0.00,,,0.00,Wunderground v.1.15,2013-04-19 04:05:00,
2013-04-18 21:10:00,57.5,36.9,30.23,NW,313,0.0,0.0,46,0.00,,,0.00,Wunderground v.1.15,2013-04-19 04:10:00,
2013-04-18 21:15:00,57.2,37.1,30.23,NW,313,0.0,0.0,47,0.00,,,0.00,Wunderground v.1.15,2013-04-19 04:15:00,
2013-04-18 21:20:00,56.9,37.4,30.23,NW,313,0.0,0.0,48,0.00,,,0.00,Wunderground v.1.15,2013-04-19 04:20:00,
2013-04-18 21:25:00,56.6,37.6,30.24,NW,313,0.0,0.0,49,0.00,,,0.00,Wunderground v.1.15,2013-04-19 04:25:00,
2013-04-18 21:30:00,56.3,37.4,30.23,NW,313,0.0,0.0,49,0.00,,,0.00,Wunderground v.1.15,2013-04-19 04:30:00,
2013-04-18 21:35:00,56.2,37.3,30.24,NW,313,0.0,0.0,49,0.00,,,0.00,Wunderground v.1.15,2013-04-19 04:35:00,
2013-04-18 21:45:00,55.8,37.9,30.24,NW,313,0.0,0.0,51,0.00,,,0.00,Wunderground v.1.15,2013-04-19 04:45:00,
2013-04-18 21:50:00,55.5,38.1,30.24,NW,313,0.0,0.0,52,0.00,,,0.00,Wunderground v.1.15,2013-04-19 04:50:00,
2013-04-18 21:55:00,55.3,37.5,30.24,NW,313,0.0,0.0,51,0.00,,,0.00,Wunderground v.1.15,2013-04-19 04:55:00,
2013-04-18 22:00:00,55.4,37.6,30.24,NW,319,0.0,0.0,51,0.00,,,0.00,Wunderground v.1.15,2013-04-19 05:00:00,
2013-04-18 22:05:00,55.5,38.1,30.24,NW,320,0.0,0.0,52,0.00,,,0.00,Wunderground v.1.15,2013-04-19 05:05:00,
2013-04-18 22:15:00,55.1,38.7,30.24,NW,319,0.0,0.0,54,0.00,,,0.00,Wunderground v.1.15,2013-04-19 05:15:00,
2013-04-18 22:20:00,54.7,38.8,30.24,NW,319,0.0,0.0,55,0.00,,,0.00,Wunderground v.1.15,2013-04-19 05:20:00,
2013-04-18 22:25:00,54.5,38.7,30.24,NW,319,0.0,0.0,55,0.00,,,0.00,Wunderground v.1.15,2013-04-19 05:25:00,
2013-04-18 22:35:00,54.4,39.0,30.24,NW,319,0.0,0.0,56,0.00,,,0.00,Wunderground v.1.15,2013-04-19 05:35:00,
2013-04-18 22:40:00,54.4,39.0,30.24,NW,319,0.0,0.0,56,0.00,,,0.00,Wunderground v.1.15,2013-04-19 05:40:00,
2013-04-18 22:50:00,54.4,38.1,30.24,NW,319,0.0,0.0,54,0.00,,,0.00,Wunderground v.1.15,2013-04-19 05:50:00,
2013-04-18 22:55:00,54.5,37.7,30.24,NW,319,0.0,0.0,53,0.00,,,0.00,Wunderground v.1.15,2013-04-19 05:55:00,
2013-04-18 23:00:00,54.6,37.3,30.24,NW,319,0.0,0.0,52,0.00,,,0.00,Wunderground v.1.15,2013-04-19 06:00:00,
2013-04-18 23:10:00,54.5,37.2,30.23,NW,319,0.0,0.0,52,0.00,,,0.00,Wunderground v.1.15,2013-04-19 06:10:00,
2013-04-18 23:15:00,54.5,37.2,30.23,NW,319,0.0,0.0,52,0.00,,,0.00,Wunderground v.1.15,2013-04-19 06:15:00,
2013-04-18 23:25:00,54.4,36.6,30.23,NW,319,0.0,0.0,51,0.00,,,0.00,Wunderground v.1.15,2013-04-19 06:25:00,
2013-04-18 23:30:00,54.4,36.6,30.22,NW,319,0.0,0.0,51,0.00,,,0.00,Wunderground v.1.15,2013-04-19 06:30:00,
2013-04-18 23:35:00,54.7,36.9,30.22,NW,319,0.0,0.0,51,0.00,,,0.00,Wunderground v.1.15,2013-04-19 06:35:00,
2013-04-18 23:45:00,55.3,37.5,30.22,NW,319,0.0,0.0,51,0.00,,,0.00,Wunderground v.1.15,2013-04-19 06:45:00,
2013-04-18 23:50:00,55.5,37.1,30.22,NW,319,0.0,0.0,50,0.00,,,0.00,Wunderground v.1.15,2013-04-19 06:50:00,
2013-04-18 23:55:00,55.6,37.2,30.22,NW,319,0.0,0.0,50,0.00,,,0.00,Wunderground v.1.15,2013-04-19 06:55:00,